IVR weather

Inverell Airport
Inverell, New South Wales, Australia

Public forecast

Using degrees Celsius for public forecast. Weather courtesy of forecast.io.

METAR (pilot weather report)

Closest report is Moree Airport, 71.7 nm (132.7 km) WNW. Retrieved 2019/02/16 08:00 UTC (56 minutes ago):

YMOR 160800Z AUTO 19006KT 9999 // NCD 33/02 Q1012

TAF (pilot weather forecast)

Closest forecast is Tamworth Airport, 73.4 nm (136.0 km) SSW. Retrieved 2019/02/16 06:36 UTC (2 hours ago):

TAF YSTW 160513Z 1606/1624 10010KT CAVOK FM162300 VRB04KT CAVOK